Time;durP1;ratioP1;P1;durP2;ratioP2;P2;SDS_P1;SDS_P2;PMS_P1;PMS_P2;Temp;Humidity;BMP_temperature;BMP_pressure;BME280_temperature;BME280_humidity;BME280_pressure;Samples;Min_cycle;Max_cycle;Signal;HPM_P1;HPM_P2
2022/01/14 00:01:40;;;;;;;;;;;;;;;4.47;61.79;100947.81;4487533;31;34088;-87
2022/01/14 00:04:09;;;;;;;;;;;;;;;4.38;62.03;100932.97;4483485;31;33901;-88
2022/01/14 00:06:38;;;;;;;;;;;;;;;4.70;61.11;100941.66;4485198;31;34816;-88
2022/01/14 00:09:11;;;;;;;;;;;;;;;4.53;61.43;100942.84;4488115;31;33349;-88
2022/01/14 00:11:41;;;;;;;;;;;;;;;4.55;61.29;100945.47;4479064;32;35078;-88
2022/01/14 00:14:20;;;;;;;;;;;;;;;4.54;61.42;100941.16;4480219;31;33180;-88
2022/01/14 00:16:54;;;;;;;;;;;;;;;4.21;62.31;100935.00;4479764;31;36061;-88
2022/01/14 00:19:22;;;;;;;;;;;;;;;4.27;62.58;100935.16;4486221;31;34149;-88
2022/01/14 00:21:50;;;;;;;;;;;;;;;4.32;62.45;100940.47;4489899;31;33689;-88
2022/01/14 00:24:30;;;;;;;;;;;;;;;4.49;62.07;100933.28;4489267;31;33706;-88
2022/01/14 00:32:43;;;;;;;;;;;;;;;4.35;62.83;100932.88;4479629;32;34223;-88
2022/01/14 00:35:12;;;;;;;;;;;;;;;4.21;63.60;100937.56;4477350;32;33946;-88
2022/01/14 00:37:40;;;;;;;;;;;;;;;4.44;62.74;100930.56;4478734;32;33359;-89
2022/01/14 00:40:09;;;;;;;;;;;;;;;4.37;62.77;100922.63;4483023;31;35108;-87
2022/01/14 00:42:37;;;;;;;;;;;;;;;4.54;62.31;100921.44;4486441;31;34318;-87
2022/01/14 00:45:07;;;;;;;;;;;;;;;4.39;62.68;100924.41;4489428;31;33308;-88
2022/01/14 00:47:37;;;;;;;;;;;;;;;4.21;63.14;100911.87;4482368;31;34849;-87
2022/01/14 00:50:07;;;;;;;;;;;;;;;4.25;63.02;100915.41;4480775;31;33657;-88
2022/01/14 00:52:38;;;;;;;;;;;;;;;4.04;63.32;100915.59;4490408;31;34582;-87
2022/01/14 00:55:12;;;;;;;;;;;;;;;4.14;63.19;100909.94;4484412;31;34259;-88
2022/01/14 01:00:32;;;;;;;;;;;;;;;4.03;63.38;100899.28;4482745;31;35045;-87
2022/01/14 01:03:03;;;;;;;;;;;;;;;4.13;63.08;100899.59;4487529;31;34455;-88
2022/01/14 01:05:31;;;;;;;;;;;;;;;3.97;63.62;100896.53;4478967;31;32671;-88
2022/01/14 01:08:04;;;;;;;;;;;;;;;4.00;63.36;100895.75;4488857;31;34051;-89
2022/01/14 01:10:34;;;;;;;;;;;;;;;4.13;63.21;100897.94;4487649;31;34383;-89
2022/01/14 01:13:09;;;;;;;;;;;;;;;4.03;63.27;100906.12;4485005;31;34139;-89
2022/01/14 01:15:38;;;;;;;;;;;;;;;4.13;62.54;100899.59;4487160;31;33178;-89
2022/01/14 01:18:07;;;;;;;;;;;;;;;4.48;61.38;100904.16;4489504;31;34144;-89
2022/01/14 01:20:36;;;;;;;;;;;;;;;4.21;62.21;100899.03;4485239;31;34207;-89
2022/01/14 01:23:05;;;;;;;;;;;;;;;4.14;62.15;100893.66;4490062;31;33776;-88
2022/01/14 01:25:39;;;;;;;;;;;;;;;4.36;61.50;100902.91;4482665;31;34032;-88
2022/01/14 01:28:08;;;;;;;;;;;;;;;4.34;61.21;100899.41;4487943;31;33614;-88
2022/01/14 01:33:36;;;;;;;;;;;;;;;4.26;61.52;100894.91;4428945;32;33578;-88
2022/01/14 01:36:04;;;;;;;;;;;;;;;3.88;62.52;100890.22;4434000;32;33482;-88
2022/01/14 01:38:33;;;;;;;;;;;;;;;3.50;64.13;100892.34;4429078;32;33258;-89
2022/01/14 01:41:01;;;;;;;;;;;;;;;3.42;64.48;100880.13;4428586;32;33935;-88
2022/01/14 01:43:30;;;;;;;;;;;;;;;3.52;64.18;100871.06;4430060;32;33856;-88
2022/01/14 01:45:59;;;;;;;;;;;;;;;3.42;64.48;100874.13;4428280;32;32946;-88
2022/01/14 01:48:27;;;;;;;;;;;;;;;3.40;64.40;100881.78;4433383;32;34676;-88
2022/01/14 01:50:58;;;;;;;;;;;;;;;3.53;63.80;100877.97;4425654;32;33917;-89
2022/01/14 01:53:26;;;;;;;;;;;;;;;3.77;63.02;100872.78;4422001;32;33983;-89
2022/01/14 01:55:55;;;;;;;;;;;;;;;3.64;63.04;100868.03;4422517;32;33692;-88
2022/01/14 01:58:23;;;;;;;;;;;;;;;3.57;63.49;100859.25;4428208;32;33683;-88
2022/01/14 02:00:51;;;;;;;;;;;;;;;3.63;63.12;100858.62;4433983;32;33937;-89
2022/01/14 02:03:20;;;;;;;;;;;;;;;3.55;63.44;100865.16;4429504;32;33602;-87
2022/01/14 02:05:49;;;;;;;;;;;;;;;3.37;64.00;100858.59;4429646;32;33137;-88
2022/01/14 02:08:18;;;;;;;;;;;;;;;3.27;64.40;100858.22;4462498;32;34744;-88
2022/01/14 02:10:47;;;;;;;;;;;;;;;3.41;64.05;100850.19;4493698;31;34869;-88
2022/01/14 02:13:16;;;;;;;;;;;;;;;3.15;64.53;100845.84;4485791;31;33611;-88
2022/01/14 02:15:48;;;;;;;;;;;;;;;3.26;64.37;100844.50;4480556;31;33011;-90
2022/01/14 02:18:32;;;;;;;;;;;;;;;3.20;64.28;100845.19;4478944;31;34497;-90
2022/01/14 02:23:52;;;;;;;;;;;;;;;3.37;63.89;100826.94;4477040;32;34958;-88
2022/01/14 02:26:21;;;;;;;;;;;;;;;3.36;64.06;100817.50;4483253;32;33787;-88
2022/01/14 02:28:50;;;;;;;;;;;;;;;3.33;64.11;100818.25;4478013;31;34540;-88
2022/01/14 02:31:19;;;;;;;;;;;;;;;3.39;63.91;100827.88;4488921;31;34140;-90
2022/01/14 02:33:47;;;;;;;;;;;;;;;3.36;64.17;100814.94;4494774;31;34451;-89
2022/01/14 02:36:17;;;;;;;;;;;;;;;3.08;65.00;100825.94;4488479;31;33149;-88
2022/01/14 02:38:46;;;;;;;;;;;;;;;2.97;65.57;100823.87;4490021;31;34069;-89
2022/01/14 02:41:15;;;;;;;;;;;;;;;3.61;63.67;100814.94;4485541;31;34897;-89
2022/01/14 02:43:43;;;;;;;;;;;;;;;3.28;64.14;100819.78;4481473;31;34353;-88
2022/01/14 02:46:14;;;;;;;;;;;;;;;3.65;63.14;100815.91;4480661;32;33468;-88
2022/01/14 02:48:42;;;;;;;;;;;;;;;3.66;63.09;100807.38;4480454;32;33764;-88
2022/01/14 02:51:17;;;;;;;;;;;;;;;3.57;63.55;100804.50;4480171;32;33972;-88
2022/01/14 02:53:57;;;;;;;;;;;;;;;3.84;62.98;100800.28;4486431;31;33494;-89
2022/01/14 02:56:31;;;;;;;;;;;;;;;3.51;63.77;100797.50;4481130;31;32972;-89
2022/01/14 02:59:00;;;;;;;;;;;;;;;3.64;63.54;100793.63;4489572;31;33575;-89
2022/01/14 03:01:28;;;;;;;;;;;;;;;3.76;63.54;100794.03;4476939;31;32488;-88
2022/01/14 03:03:57;;;;;;;;;;;;;;;3.70;63.57;100798.97;4481949;31;33554;-89
2022/01/14 03:06:26;;;;;;;;;;;;;;;3.62;63.79;100790.13;4481917;31;32997;-88
2022/01/14 03:08:56;;;;;;;;;;;;;;;3.51;64.22;100781.25;4491705;31;34273;-89
2022/01/14 03:11:27;;;;;;;;;;;;;;;3.61;64.15;100775.56;4486534;31;34446;-89
2022/01/14 03:13:55;;;;;;;;;;;;;;;3.57;64.10;100778.84;4480653;31;33704;-89
2022/01/14 03:16:24;;;;;;;;;;;;;;;3.52;64.16;100777.84;4492039;31;32941;-88
2022/01/14 03:19:03;;;;;;;;;;;;;;;3.44;64.44;100769.91;4494175;31;34945;-89
2022/01/14 03:21:37;;;;;;;;;;;;;;;3.53;63.84;100765.06;4497139;31;33937;-90
2022/01/14 03:24:17;;;;;;;;;;;;;;;3.43;63.48;100765.56;4486052;31;34699;-89
2022/01/14 03:26:46;;;;;;;;;;;;;;;3.51;63.34;100761.59;4481086;31;33400;-89
2022/01/14 03:29:15;;;;;;;;;;;;;;;3.62;62.66;100755.09;4479960;31;33986;-89
2022/01/14 03:31:44;;;;;;;;;;;;;;;3.69;62.46;100750.16;4489938;31;34155;-90
2022/01/14 03:34:12;;;;;;;;;;;;;;;3.52;63.05;100747.91;4494637;31;34946;-89
2022/01/14 03:36:41;;;;;;;;;;;;;;;3.67;63.15;100754.38;4500830;31;33307;-88
2022/01/14 03:39:15;;;;;;;;;;;;;;;3.40;64.28;100744.97;4481708;31;33914;-89
2022/01/14 03:41:44;;;;;;;;;;;;;;;3.30;64.65;100754.03;4487645;31;34486;-89
2022/01/14 03:44:12;;;;;;;;;;;;;;;3.18;65.15;100751.06;4481018;31;34498;-89
2022/01/14 03:46:41;;;;;;;;;;;;;;;3.28;65.15;100747.12;4480014;31;33080;-89
2022/01/14 03:49:11;;;;;;;;;;;;;;;3.51;64.75;100735.94;4486731;31;34126;-88
2022/01/14 03:51:41;;;;;;;;;;;;;;;3.53;65.10;100733.41;4490428;31;34297;-88
2022/01/14 03:54:10;;;;;;;;;;;;;;;3.35;65.21;100725.97;4484897;31;34174;-88
2022/01/14 03:56:40;;;;;;;;;;;;;;;3.49;65.35;100726.44;4480345;31;32889;-89
2022/01/14 03:59:08;;;;;;;;;;;;;;;3.14;66.42;100723.56;4480899;31;34575;-89
2022/01/14 04:01:37;;;;;;;;;;;;;;;3.18;67.00;100725.44;4493293;31;33950;-89
2022/01/14 04:04:05;;;;;;;;;;;;;;;3.18;67.10;100725.44;4488702;31;34519;-88
2022/01/14 04:06:34;;;;;;;;;;;;;;;3.27;66.86;100709.50;4480281;31;34180;-88
2022/01/14 04:09:02;;;;;;;;;;;;;;;3.10;67.29;100719.19;4480181;31;34161;-89
2022/01/14 04:11:33;;;;;;;;;;;;;;;3.37;66.90;100717.50;4489163;31;37232;-89
2022/01/14 04:15:36;;;;;;;;;;;;;;;3.26;67.31;100707.72;4500078;31;33507;-88
2022/01/14 04:16:57;;;;;;;;;;;;;;;3.18;67.71;100716.03;4485267;31;33059;-89
2022/01/14 04:19:26;;;;;;;;;;;;;;;2.95;68.82;100702.47;4494213;31;33789;-89
2022/01/14 04:21:54;;;;;;;;;;;;;;;2.75;69.21;100700.91;4483130;31;34357;-88
2022/01/14 04:24:23;;;;;;;;;;;;;;;2.86;69.24;100697.03;4487436;31;34419;-88
2022/01/14 04:26:51;;;;;;;;;;;;;;;2.95;68.89;100688.78;4492483;31;34140;-89
2022/01/14 04:29:21;;;;;;;;;;;;;;;2.90;69.15;100680.94;4497225;31;34550;-88
2022/01/14 04:31:50;;;;;;;;;;;;;;;3.02;68.83;100677.91;4486985;31;33629;-89
2022/01/14 04:34:18;;;;;;;;;;;;;;;2.98;69.15;100682.06;4490158;31;34756;-89
2022/01/14 04:36:46;;;;;;;;;;;;;;;3.14;68.66;100685.13;4486901;31;32666;-89
2022/01/14 04:39:17;;;;;;;;;;;;;;;3.34;67.77;100683.22;4473980;32;33585;-88
2022/01/14 04:41:46;;;;;;;;;;;;;;;3.25;67.83;100676.09;4491486;31;34863;-88
2022/01/14 04:44:15;;;;;;;;;;;;;;;3.26;67.93;100667.56;4474968;31;34159;-88
2022/01/14 04:47:01;;;;;;;;;;;;;;;3.02;68.61;100682.16;4480631;31;32218;-88
2022/01/14 04:49:30;;;;;;;;;;;;;;;3.16;68.76;100675.78;4494957;31;33873;-88
2022/01/14 04:51:58;;;;;;;;;;;;;;;3.38;67.55;100678.25;4483718;31;34082;-88
2022/01/14 04:54:26;;;;;;;;;;;;;;;3.22;67.69;100668.31;4477706;32;34623;-88
2022/01/14 04:56:55;;;;;;;;;;;;;;;2.98;68.48;100656.41;4484542;32;34028;-88
2022/01/14 04:59:23;;;;;;;;;;;;;;;3.04;68.40;100653.19;4478983;32;33988;-89
2022/01/14 05:01:56;;;;;;;;;;;;;;;2.86;69.09;100656.03;4479418;32;34545;-88
2022/01/14 05:04:24;;;;;;;;;;;;;;;2.89;68.99;100650.97;4486921;31;33707;-89
2022/01/14 05:06:59;;;;;;;;;;;;;;;3.02;68.33;100649.72;4480074;31;33108;-89
2022/01/14 05:09:33;;;;;;;;;;;;;;;2.95;68.42;100655.47;4485025;31;34324;-89
2022/01/14 05:12:08;;;;;;;;;;;;;;;2.87;68.74;100651.75;4456087;31;784652;-89
2022/01/14 05:14:37;;;;;;;;;;;;;;;2.81;68.99;100657.56;4479296;31;34101;-89
2022/01/14 05:17:06;;;;;;;;;;;;;;;2.55;69.64;100639.59;4489705;31;32904;-88
2022/01/14 05:19:35;;;;;;;;;;;;;;;2.66;69.68;100647.66;4480152;31;34040;-90
2022/01/14 05:22:04;;;;;;;;;;;;;;;2.47;70.44;100645.28;4482006;31;34976;-89
2022/01/14 05:24:33;;;;;;;;;;;;;;;2.56;70.08;100643.91;4497998;31;33871;-90
2022/01/14 05:27:01;;;;;;;;;;;;;;;2.60;69.65;100651.69;4479814;31;33945;-89
2022/01/14 05:29:30;;;;;;;;;;;;;;;2.51;69.89;100653.13;4479553;31;34463;-88
2022/01/14 05:32:03;;;;;;;;;;;;;;;2.63;69.46;100654.34;4488782;31;35053;-89
2022/01/14 05:34:33;;;;;;;;;;;;;;;2.67;69.57;100651.09;4480962;31;34775;-89
2022/01/14 05:37:02;;;;;;;;;;;;;;;2.48;69.98;100663.25;4497862;31;33172;-89
2022/01/14 05:39:30;;;;;;;;;;;;;;;2.61;69.74;100653.44;4495013;31;33697;-88
2022/01/14 05:42:00;;;;;;;;;;;;;;;2.75;69.05;100652.22;4485279;31;34175;-89
2022/01/14 05:44:28;;;;;;;;;;;;;;;2.76;68.72;100649.72;4479135;31;34410;-88
2022/01/14 05:46:57;;;;;;;;;;;;;;;2.63;69.25;100649.22;4488081;31;32752;-89
2022/01/14 05:49:26;;;;;;;;;;;;;;;2.38;70.32;100653.50;4497164;31;33793;-90
2022/01/14 05:51:56;;;;;;;;;;;;;;;2.65;69.30;100655.28;4484798;31;33853;-89
2022/01/14 05:54:24;;;;;;;;;;;;;;;2.55;69.49;100647.28;4491038;31;34168;-88
2022/01/14 05:56:53;;;;;;;;;;;;;;;2.59;69.46;100653.41;4475595;32;32871;-89
2022/01/14 05:59:21;;;;;;;;;;;;;;;2.53;69.58;100651.47;4479722;31;34871;-89
2022/01/14 06:01:49;;;;;;;;;;;;;;;2.55;69.44;100656.66;4482036;31;35133;-88
2022/01/14 06:04:18;;;;;;;;;;;;;;;2.56;69.48;100656.72;4488017;31;33960;-89
2022/01/14 06:06:46;;;;;;;;;;;;;;;2.56;69.02;100641.34;4478725;32;33564;-89
2022/01/14 06:09:16;;;;;;;;;;;;;;;2.73;68.89;100653.84;4481540;31;34554;-88
2022/01/14 06:11:44;;;;;;;;;;;;;;;2.72;69.05;100655.53;4481119;31;35064;-89
2022/01/14 06:14:13;;;;;;;;;;;;;;;2.73;69.44;100658.97;4482657;31;34765;-88
2022/01/14 06:16:42;;;;;;;;;;;;;;;2.87;68.98;100650.06;4487062;31;32865;-88
2022/01/14 06:19:11;;;;;;;;;;;;;;;2.76;69.18;100649.72;4496222;31;34011;-88
2022/01/14 06:21:39;;;;;;;;;;;;;;;2.98;68.58;100646.16;4496775;31;34933;-87
2022/01/14 06:24:07;;;;;;;;;;;;;;;3.15;67.86;100646.72;4493643;31;34601;-87
2022/01/14 06:26:37;;;;;;;;;;;;;;;3.32;66.98;100646.38;4481319;31;33109;-89
2022/01/14 06:29:05;;;;;;;;;;;;;;;3.23;67.05;100641.81;4489442;31;35732;-88
2022/01/14 06:31:34;;;;;;;;;;;;;;;3.26;67.13;100630.78;4480645;31;33985;-88
2022/01/14 06:34:03;;;;;;;;;;;;;;;2.99;67.62;100632.50;4487627;31;33948;-87
2022/01/14 06:36:31;;;;;;;;;;;;;;;3.07;67.31;100637.03;4483441;31;33103;-87
2022/01/14 06:39:00;;;;;;;;;;;;;;;3.12;67.66;100643.19;4484796;31;34032;-86
2022/01/14 06:41:28;;;;;;;;;;;;;;;3.48;66.47;100633.22;4487341;31;34226;-88
2022/01/14 06:43:58;;;;;;;;;;;;;;;3.12;67.70;100626.13;4480825;31;34662;-88
2022/01/14 06:46:27;;;;;;;;;;;;;;;3.24;67.21;100625.62;4484446;31;32230;-87
2022/01/14 06:48:55;;;;;;;;;;;;;;;3.18;67.38;100626.28;4485050;31;34197;-88
2022/01/14 06:51:23;;;;;;;;;;;;;;;3.20;67.32;100618.66;4472822;32;34857;-87
2022/01/14 06:53:52;;;;;;;;;;;;;;;3.16;67.78;100629.63;4480165;32;34586;-88
2022/01/14 06:56:23;;;;;;;;;;;;;;;3.07;67.81;100621.62;4486822;31;33950;-89
2022/01/14 06:58:52;;;;;;;;;;;;;;;3.30;67.33;100628.38;4491783;31;33285;-88
2022/01/14 07:01:22;;;;;;;;;;;;;;;2.95;68.90;100622.16;4489657;31;34154;-87
2022/01/14 07:03:50;;;;;;;;;;;;;;;3.27;67.73;100615.47;4489934;31;33913;-87
2022/01/14 07:06:19;;;;;;;;;;;;;;;3.41;67.34;100618.47;4488807;31;33063;-88
2022/01/14 07:08:47;;;;;;;;;;;;;;;3.28;67.92;100619.75;4494490;31;34001;-88
2022/01/14 07:11:15;;;;;;;;;;;;;;;3.53;67.34;100610.28;4496081;31;33899;-87
2022/01/14 07:13:44;;;;;;;;;;;;;;;3.57;67.32;100610.37;4487649;31;34573;-87
2022/01/14 07:16:12;;;;;;;;;;;;;;;3.57;67.51;100614.66;4480314;31;33234;-88
2022/01/14 07:18:45;;;;;;;;;;;;;;;3.51;67.41;100599.97;4484270;32;33698;-87
2022/01/14 07:21:14;;;;;;;;;;;;;;;3.67;67.25;100600.41;4490860;31;34895;-87
2022/01/14 07:23:42;;;;;;;;;;;;;;;3.49;67.62;100593.03;4496333;31;34078;-88
2022/01/14 07:26:10;;;;;;;;;;;;;;;3.81;66.62;100596.53;4490842;31;33550;-87
2022/01/14 07:28:39;;;;;;;;;;;;;;;3.41;67.63;100590.25;4483676;31;34195;-88
2022/01/14 07:31:13;;;;;;;;;;;;;;;3.52;67.49;100594.00;4487338;31;34857;-87
2022/01/14 07:33:44;;;;;;;;;;;;;;;3.61;67.20;100594.25;4483725;31;33485;-88
2022/01/14 07:36:12;;;;;;;;;;;;;;;3.78;66.16;100594.75;4480117;31;33375;-87
2022/01/14 07:38:43;;;;;;;;;;;;;;;3.93;65.76;100590.88;4478764;31;33022;-88
2022/01/14 07:41:11;;;;;;;;;;;;;;;3.82;66.26;100601.72;4479497;31;34362;-87
2022/01/14 07:43:41;;;;;;;;;;;;;;;3.89;65.88;100599.31;4480044;31;34234;-87
2022/01/14 07:46:09;;;;;;;;;;;;;;;4.05;65.79;100594.66;4487924;31;33553;-87
2022/01/14 07:48:37;;;;;;;;;;;;;;;3.93;66.26;100604.59;4488868;31;34090;-87
2022/01/14 07:51:08;;;;;;;;;;;;;;;3.98;66.11;100595.31;4488200;31;33687;-87
2022/01/14 07:53:36;;;;;;;;;;;;;;;3.94;66.29;100603.78;4489563;31;33940;-87
2022/01/14 07:56:07;;;;;;;;;;;;;;;3.92;66.54;100602.00;4491288;31;33262;-87
2022/01/14 07:58:35;;;;;;;;;;;;;;;3.93;66.64;100608.84;4484071;32;35125;-87
2022/01/14 08:01:04;;;;;;;;;;;;;;;4.04;66.27;100598.06;4479038;32;34240;-88
2022/01/14 08:03:33;;;;;;;;;;;;;;;4.45;64.96;100607.72;4479711;32;33722;-87
2022/01/14 08:06:04;;;;;;;;;;;;;;;4.46;64.70;100612.03;4489183;31;33364;-88
2022/01/14 08:08:33;;;;;;;;;;;;;;;4.48;64.66;100598.38;4472122;32;34441;-87
2022/01/14 08:11:02;;;;;;;;;;;;;;;4.57;64.17;100592.63;4497377;31;34249;-87
2022/01/14 08:13:30;;;;;;;;;;;;;;;4.45;64.54;100598.31;4482443;31;35211;-88
2022/01/14 08:15:59;;;;;;;;;;;;;;;4.46;64.60;100591.47;4480134;31;33267;-88
2022/01/14 08:18:29;;;;;;;;;;;;;;;4.61;64.14;100579.00;4480079;31;33942;-87
2022/01/14 08:20:59;;;;;;;;;;;;;;;4.72;63.94;100586.13;4488711;31;34917;-88
2022/01/14 08:23:27;;;;;;;;;;;;;;;4.63;63.98;100597.91;4482255;31;33896;-87
2022/01/14 08:25:59;;;;;;;;;;;;;;;4.50;64.35;100580.44;4486482;31;32898;-87
2022/01/14 08:28:28;;;;;;;;;;;;;;;4.57;64.27;100582.34;4482861;31;34412;-87
2022/01/14 08:30:56;;;;;;;;;;;;;;;4.78;63.49;100578.56;4480266;31;33562;-87
2022/01/14 08:33:25;;;;;;;;;;;;;;;4.83;63.25;100575.28;4476153;31;34837;-87
2022/01/14 08:35:53;;;;;;;;;;;;;;;4.97;62.88;100573.03;4484471;31;34266;-88
2022/01/14 08:38:22;;;;;;;;;;;;;;;5.12;62.38;100568.25;4488307;31;32508;-87
2022/01/14 08:40:50;;;;;;;;;;;;;;;5.14;62.13;100576.84;4482802;31;34956;-89
2022/01/14 08:43:23;;;;;;;;;;;;;;;4.91;62.99;100583.19;4484130;31;33983;-87
2022/01/14 08:45:51;;;;;;;;;;;;;;;4.89;62.89;100575.41;4468468;31;31894;-88
2022/01/14 08:48:20;;;;;;;;;;;;;;;4.95;62.91;100564.41;4488722;31;34791;-88
2022/01/14 08:50:48;;;;;;;;;;;;;;;5.18;62.20;100554.66;4490387;31;33934;-87
2022/01/14 08:53:17;;;;;;;;;;;;;;;5.05;62.45;100552.63;4479959;31;33674;-88
2022/01/14 08:55:45;;;;;;;;;;;;;;;5.13;62.25;100545.97;4482317;31;34047;-87
2022/01/14 08:58:16;;;;;;;;;;;;;;;5.11;62.49;100545.06;4468067;31;34654;-88
2022/01/14 09:00:45;;;;;;;;;;;;;;;5.34;61.94;100540.44;4473094;31;34057;-86
2022/01/14 09:03:14;;;;;;;;;;;;;;;5.62;60.84;100546.16;4477600;31;32940;-87
2022/01/14 09:05:42;;;;;;;;;;;;;;;5.36;61.79;100541.31;4474725;31;32985;-87
2022/01/14 09:08:11;;;;;;;;;;;;;;;5.49;61.37;100548.47;4474434;31;33741;-87
2022/01/14 09:10:42;;;;;;;;;;;;;;;5.62;61.02;100549.59;4475942;31;35113;-88
2022/01/14 09:13:10;;;;;;;;;;;;;;;5.55;61.14;100548.59;4473170;31;33074;-87
2022/01/14 09:15:39;;;;;;;;;;;;;;;5.42;61.65;100554.31;4478121;31;33401;-88
2022/01/14 09:18:09;;;;;;;;;;;;;;;5.63;61.27;100560.75;4478503;31;33914;-88
2022/01/14 09:20:37;;;;;;;;;;;;;;;5.46;61.63;100543.28;4472394;32;33573;-88
2022/01/14 09:23:12;;;;;;;;;;;;;;;5.69;61.00;100550.59;4476756;31;35016;-88
2022/01/14 09:25:40;;;;;;;;;;;;;;;5.84;60.34;100529.44;4478076;31;33278;-87
2022/01/14 09:28:09;;;;;;;;;;;;;;;5.82;60.04;100531.97;4481624;31;32161;-89
2022/01/14 09:30:37;;;;;;;;;;;;;;;5.98;59.63;100521.16;4478402;31;33897;-88
2022/01/14 09:33:06;;;;;;;;;;;;;;;6.13;59.08;100524.84;4474846;32;33464;-88
2022/01/14 09:35:37;;;;;;;;;;;;;;;5.96;59.21;100509.94;4481242;31;33283;-88
2022/01/14 09:38:06;;;;;;;;;;;;;;;5.95;59.30;100502.22;4484845;31;33563;-88
2022/01/14 09:40:34;;;;;;;;;;;;;;;6.22;58.50;100517.31;4483943;31;34937;-86
2022/01/14 09:43:03;;;;;;;;;;;;;;;6.34;58.38;100501.19;4478303;32;34910;-88
2022/01/14 09:45:51;;;;;;;;;;;;;;;6.61;57.38;100504.19;4477974;31;33476;-88
2022/01/14 09:48:20;;;;;;;;;;;;;;;6.52;57.36;100487.72;4484339;31;33409;-89
2022/01/14 09:50:51;;;;;;;;;;;;;;;6.58;57.09;100508.47;4479982;32;34500;-89
2022/01/14 09:53:19;;;;;;;;;;;;;;;6.38;57.69;100508.13;4480707;32;34353;-88
2022/01/14 09:55:50;;;;;;;;;;;;;;;6.46;57.47;100503.97;4485204;32;33392;-87
2022/01/14 09:58:19;;;;;;;;;;;;;;;6.71;56.82;100504.34;4479527;31;33205;-87
2022/01/14 10:00:49;;;;;;;;;;;;;;;6.30;57.62;100500.25;4476839;31;35049;-87
2022/01/14 10:03:19;;;;;;;;;;;;;;;6.34;57.64;100496.03;4477031;31;34794;-86
2022/01/14 10:05:51;;;;;;;;;;;;;;;6.62;56.59;100481.91;4476722;31;33277;-88
2022/01/14 10:08:25;;;;;;;;;;;;;;;6.58;56.69;100469.78;4482968;31;34184;-87
2022/01/14 10:10:55;;;;;;;;;;;;;;;6.65;56.39;100466.47;4483798;31;34003;-88
2022/01/14 10:13:25;;;;;;;;;;;;;;;6.52;56.43;100461.94;4474276;31;33988;-87
2022/01/14 10:15:53;;;;;;;;;;;;;;;6.46;56.42;100448.97;4482914;31;33552;-86
2022/01/14 10:18:23;;;;;;;;;;;;;;;6.61;56.41;100442.31;4478158;31;34955;-88
2022/01/14 10:20:51;;;;;;;;;;;;;;;6.90;55.43;100444.47;4476828;31;34770;-88
2022/01/14 10:23:34;;;;;;;;;;;;;;;6.96;55.10;100441.97;4479863;31;32450;-88
2022/01/14 10:26:05;;;;;;;;;;;;;;;7.10;54.44;100462.78;4480490;31;35248;-86
2022/01/14 10:28:33;;;;;;;;;;;;;;;6.77;54.87;100440.84;4473824;31;34674;-88
2022/01/14 10:31:02;;;;;;;;;;;;;;;6.79;55.38;100444.31;4474572;31;33094;-87
2022/01/14 10:33:30;;;;;;;;;;;;;;;6.85;54.76;100438.38;4476317;31;34215;-87
2022/01/14 10:35:59;;;;;;;;;;;;;;;6.87;54.98;100438.41;4478876;31;33231;-88
2022/01/14 10:38:28;;;;;;;;;;;;;;;6.73;55.11;100433.03;4480472;31;34349;-88
2022/01/14 10:40:58;;;;;;;;;;;;;;;6.52;55.52;100423.28;4481818;31;34756;-87
2022/01/14 10:43:32;;;;;;;;;;;;;;;6.81;55.02;100416.84;4476422;31;33717;-87
2022/01/14 10:46:01;;;;;;;;;;;;;;;6.69;55.16;100400.31;4481601;31;33475;-89
2022/01/14 10:48:32;;;;;;;;;;;;;;;6.91;54.67;100406.63;4479925;31;34303;-88
2022/01/14 10:51:01;;;;;;;;;;;;;;;6.86;54.75;100392.81;4490894;31;34097;-87
2022/01/14 10:53:31;;;;;;;;;;;;;;;6.84;54.72;100385.94;4479803;31;34754;-87
2022/01/14 10:56:01;;;;;;;;;;;;;;;6.73;55.13;100371.16;4485463;31;32869;-87
2022/01/14 10:58:31;;;;;;;;;;;;;;;6.79;54.85;100384.12;4485448;31;34108;-88
2022/01/14 11:01:05;;;;;;;;;;;;;;;6.72;55.18;100378.03;4478375;31;34278;-88
2022/01/14 11:03:35;;;;;;;;;;;;;;;6.91;54.65;100367.94;4482404;31;33369;-88
2022/01/14 11:06:19;;;;;;;;;;;;;;;6.77;54.94;100373.81;4489661;31;34689;-87
2022/01/14 11:08:48;;;;;;;;;;;;;;;6.64;55.42;100377.03;4484312;31;33906;-88
2022/01/14 11:11:17;;;;;;;;;;;;;;;6.75;55.34;100354.88;4484159;31;34208;-87
2022/01/14 11:13:45;;;;;;;;;;;;;;;6.62;55.50;100358.13;4477102;31;32108;-88
2022/01/14 11:16:15;;;;;;;;;;;;;;;6.71;55.33;100360.81;4481456;31;34709;-88
2022/01/14 11:18:44;;;;;;;;;;;;;;;6.74;55.07;100371.19;4486725;31;33716;-87
2022/01/14 11:23:59;;;;;;;;;;;;;;;6.86;54.73;100342.09;4477989;32;34172;-87
2022/01/14 11:26:28;;;;;;;;;;;;;;;6.87;54.67;100343.84;4479576;32;33468;-88
2022/01/14 11:28:57;;;;;;;;;;;;;;;6.87;54.61;100358.47;4479291;31;33841;-87
2022/01/14 11:31:28;;;;;;;;;;;;;;;6.87;54.65;100330.09;4477844;31;33467;-87
2022/01/14 11:33:56;;;;;;;;;;;;;;;6.81;55.05;100341.16;4481511;32;34134;-86
2022/01/14 11:36:25;;;;;;;;;;;;;;;6.76;54.81;100330.78;4483381;31;33999;-88
2022/01/14 11:38:54;;;;;;;;;;;;;;;6.59;55.42;100347.75;4479688;31;34416;-88
2022/01/14 11:41:42;;;;;;;;;;;;;;;6.69;55.54;100330.69;4480385;31;34149;-87
2022/01/14 11:44:12;;;;;;;;;;;;;;;6.64;55.59;100317.75;4483322;31;34103;-88
2022/01/14 11:46:44;;;;;;;;;;;;;;;6.77;55.29;100300.75;4493406;31;34057;-87
2022/01/14 11:49:34;;;;;;;;;;;;;;;6.79;55.27;100310.22;4489327;31;34372;-88
2022/01/14 11:52:03;;;;;;;;;;;;;;;6.77;55.57;100305.91;4486120;31;33899;-87
2022/01/14 11:54:43;;;;;;;;;;;;;;;6.69;55.76;100281.72;4482858;31;34923;-87
2022/01/14 11:57:12;;;;;;;;;;;;;;;6.84;55.29;100293.09;4475968;31;33727;-87
2022/01/14 11:59:45;;;;;;;;;;;;;;;6.80;55.84;100299.03;4481524;31;32552;-87
2022/01/14 12:02:41;;;;;;;;;;;;;;;6.89;55.50;100315.50;4483780;31;34464;-87
2022/01/14 12:05:13;;;;;;;;;;;;;;;7.01;55.19;100324.25;4446857;31;32636;-88
2022/01/14 12:08:00;;;;;;;;;;;;;;;7.03;55.13;100325.13;4481141;31;32589;-87
2022/01/14 12:10:29;;;;;;;;;;;;;;;7.26;54.60;100309.88;4483625;32;34874;-86
2022/01/14 12:13:12;;;;;;;;;;;;;;;7.45;54.15;100316.09;4480142;31;34001;-87
2022/01/14 12:15:47;;;;;;;;;;;;;;;7.46;54.05;100309.19;4477735;31;34711;-86
2022/01/14 12:18:15;;;;;;;;;;;;;;;7.52;53.87;100311.00;4477817;31;33350;-87
2022/01/14 12:20:48;;;;;;;;;;;;;;;7.42;53.96;100317.78;4474168;31;33957;-88
2022/01/14 12:23:18;;;;;;;;;;;;;;;7.42;54.04;100310.91;4474709;31;33452;-87
2022/01/14 12:25:47;;;;;;;;;;;;;;;7.45;54.00;100315.22;4481304;31;34669;-87
2022/01/14 12:28:20;;;;;;;;;;;;;;;7.52;53.77;100308.41;4478096;31;33539;-87
2022/01/14 12:31:01;;;;;;;;;;;;;;;7.95;52.52;100301.87;4476762;31;33616;-87
2022/01/14 12:33:39;;;;;;;;;;;;;;;8.02;52.15;100307.94;4476407;31;34031;-87
2022/01/14 12:36:11;;;;;;;;;;;;;;;8.00;52.36;100299.34;4473960;31;33521;-87
2022/01/14 12:38:42;;;;;;;;;;;;;;;8.01;52.33;100307.06;4476030;31;33227;-87
2022/01/14 12:41:14;;;;;;;;;;;;;;;7.81;52.95;100308.66;4479704;31;34144;-87
2022/01/14 12:43:49;;;;;;;;;;;;;;;7.90;52.63;100316.47;4473060;31;34981;-87
2022/01/14 12:46:35;;;;;;;;;;;;;;;8.01;52.62;100314.81;4476840;31;34926;-87
2022/01/14 12:49:08;;;;;;;;;;;;;;;8.18;52.23;100309.78;4470152;31;36016;-87
2022/01/14 12:51:37;;;;;;;;;;;;;;;7.85;52.73;100315.56;4475384;31;31704;-88
2022/01/14 12:54:08;;;;;;;;;;;;;;;7.77;52.86;100312.91;4472614;31;34938;-87
2022/01/14 12:56:37;;;;;;;;;;;;;;;7.90;52.84;100314.75;4482850;31;33207;-87
2022/01/14 12:59:06;;;;;;;;;;;;;;;8.07;52.13;100301.06;4478219;31;33202;-88
2022/01/14 13:01:37;;;;;;;;;;;;;;;7.65;52.75;100318.84;4466111;32;33049;-88
2022/01/14 13:04:08;;;;;;;;;;;;;;;7.68;52.83;100310.25;4477572;32;33995;-88
2022/01/14 13:06:43;;;;;;;;;;;;;;;7.88;51.60;100328.53;4480835;31;33207;-88
2022/01/14 13:09:11;;;;;;;;;;;;;;;7.80;51.97;100306.91;4488400;31;32554;-88
2022/01/14 13:11:50;;;;;;;;;;;;;;;8.13;51.10;100294.22;4489554;31;33833;-88
2022/01/14 13:14:26;;;;;;;;;;;;;;;8.09;50.79;100297.69;4482617;31;35069;-87
2022/01/14 13:16:56;;;;;;;;;;;;;;;8.27;50.55;100288.31;4485913;31;33586;-88
2022/01/14 13:19:26;;;;;;;;;;;;;;;7.97;51.00;100305.31;4481522;31;33197;-89
2022/01/14 13:21:55;;;;;;;;;;;;;;;7.80;51.48;100306.91;4485228;31;33591;-88